Belomorsk — UBJM2 — position and weather

sailwx.info

Track history (hours):
 
Tides and Currents Weather Stations Pressure Air Temp Water Temp Dewpoint Dewpoint Depression Visibility Wind Speed Wind Dir Waves Ship Positions

Belomorsk

Last reported at 2018-Feb-23 12:52 UTC. Time now 2018-Feb-24 13:44 UTC.
Position N 70°32' E 018°43'.

Length 69 m; draft 6.5 m.

Type: Fishing. MMSI: 273370020.

Date/timePositionNaut miles runAvg speedWind from/ knotsBaromVisibWave heightAir tempDewpointWater temp
2018-Feb-23 12:52N 70°32' E 018°43'3 9.1
2018-Feb-23 12:30N 70°33' E 018°53'5 9.5
2018-Feb-23 12:00N 70°34' E 019°06'5 9.3
2018-Feb-23 11:30N 70°36' E 019°19'5 9.1
2018-Feb-23 11:00N 70°37' E 019°32'5 9.4
2018-Feb-23 10:30N 70°39' E 019°46'5 9.4
2018-Feb-23 10:00N 70°40' E 019°60'5 6.5
2018-Feb-23 09:10N 70°41' E 020°15'0 2.1
2018-Feb-23 09:00N 70°41' E 020°16'2 4.0
2018-Feb-23 08:28N 70°42' E 020°23'2 3.9
2018-Feb-23 08:00N 70°43' E 020°28'2 4.0
2018-Feb-23 07:30N 70°43' E 020°33'2 3.6
2018-Feb-23 06:54N 70°45' E 020°35'2 3.9
2018-Feb-23 06:30N 70°46' E 020°31'1 1.1
2018-Feb-23 06:00N 70°47' E 020°32'4 1.7
2018-Feb-23 03:53N 70°49' E 020°23'6 4.4
2018-Feb-23 02:37N 70°49' E 020°40'1 8.6
2018-Feb-23 02:30N 70°50' E 020°42'5 9.3
2018-Feb-23 02:00N 70°51' E 020°55'510.0
2018-Feb-23 01:30N 70°53' E 021°10'510.4
2018-Feb-23 01:00N 70°55' E 021°24'510.6
2018-Feb-23 00:30N 70°57' E 021°39'510.6
2018-Feb-23 00:00N 70°60' E 021°53'510.4
2018-Feb-22 23:30N 71°02' E 022°08'510.0
2018-Feb-22 23:00N 71°04' E 022°22'5 9.5
2018-Feb-22 22:30N 71°06' E 022°35'5 9.8
2018-Feb-22 22:00N 71°09' E 022°48'510.2
2018-Feb-22 21:30N 71°11' E 023°02'5 9.5
2018-Feb-22 21:00N 71°13' E 023°16'4 8.8
2018-Feb-22 20:29N 71°15' E 023°28'5 9.4
2018-Feb-22 20:00N 71°17' E 023°40'5 9.3
2018-Feb-22 19:30N 71°19' E 023°53'5 9.1
2018-Feb-22 18:59N 71°21' E 024°08'4 9.0
2018-Feb-22 18:30N 71°21' E 024°21'5 9.5
2018-Feb-22 18:00N 71°21' E 024°36'5 9.6
2018-Feb-22 17:30N 71°22' E 024°51'5 9.7
2018-Feb-22 17:00N 71°23' E 025°06'5 9.9
2018-Feb-22 16:30N 71°24' E 025°21'5 9.4
2018-Feb-22 16:00N 71°25' E 025°36'5 9.4
2018-Feb-22 15:30N 71°25' E 025°50'5 9.4
2018-Feb-22 15:00N 71°25' E 026°05'5 9.8
2018-Feb-22 14:29N 71°25' E 026°21'510.1
2018-Feb-22 14:00N 71°25' E 026°36'510.0
2018-Feb-22 13:30N 71°24' E 026°52'5 9.8
2018-Feb-22 13:00N 71°23' E 027°07'5 9.5
2018-Feb-22 12:30N 71°23' E 027°22'5 9.9
2018-Feb-22 12:00N 71°22' E 027°37'510.4
2018-Feb-22 11:30N 71°21' E 027°53'510.1
2018-Feb-22 11:00N 71°21' E 028°09'510.0
2018-Feb-22 10:29N 71°20' E 028°25'5 9.6
2018-Feb-22 10:00N 71°17' E 028°36'5 9.3
2018-Feb-22 09:30N 71°14' E 028°48'5 8.8
2018-Feb-22 09:00N 71°12' E 028°60'4 9.0
2018-Feb-22 08:30N 71°10' E 029°11'4 8.9
2018-Feb-22 08:00N 71°07' E 029°23'4 8.9
2018-Feb-22 07:30N 71°05' E 029°34'5 8.9
2018-Feb-22 07:00N 71°02' E 029°46'4 9.0
2018-Feb-22 06:30N 70°60' E 029°57'5 9.4
2018-Feb-22 06:00N 70°57' E 030°09'5 9.7
2018-Feb-22 05:30N 70°55' E 030°22'5 9.5
2018-Feb-22 05:00N 70°52' E 030°34'5 9.3
2018-Feb-22 04:30N 70°49' E 030°45'5 9.7
2018-Feb-22 04:00N 70°46' E 030°57'5 9.7
2018-Feb-22 03:30N 70°43' E 031°09'5 9.9
2018-Feb-22 03:00N 70°40' E 031°20'510.0
2018-Feb-22 02:30N 70°36' E 031°31'16 9.2
2018-Feb-22 00:44N 70°21' E 031°49'2 9.0
2018-Feb-22 00:30N 70°19' E 031°47'5 8.6
2018-Feb-21 23:59N 70°16' E 031°38'4 9.2
2018-Feb-21 23:30N 70°13' E 031°29'5 9.2
2018-Feb-21 23:00N 70°10' E 031°18'5 9.6
2018-Feb-21 22:30N 70°08' E 031°06'5 9.3
2018-Feb-21 21:59N 70°05' E 030°54'1 2.9
2018-Feb-21 21:30N 70°04' E 030°51'1 2.8
2018-Feb-21 21:00N 70°03' E 030°48'2 4.1
2018-Feb-21 20:30N 70°02' E 030°43'3 5.6
2018-Feb-21 20:01N 70°00' E 030°37'3 6.6
2018-Feb-21 19:30N 69°58' E 030°29'4 7.6
2018-Feb-21 19:00N 69°56' E 030°20'4 7.9
2018-Feb-21 18:30N 69°54' E 030°10'4 8.4
2018-Feb-21 18:00N 69°50' E 030°07'4 8.2
2018-Feb-21 17:30N 69°46' E 030°05'2 4.1
2018-Feb-21 16:58N 69°44' E 030°05'0 0.0
2018-Feb-21 16:28N 69°44' E 030°05'0 0.0
2018-Feb-21 15:58N 69°44' E 030°05'0 0.0
2018-Feb-21 15:28N 69°44' E 030°05'0 0.0
2018-Feb-21 14:58N 69°44' E 030°05'0 0.0
2018-Feb-21 14:28N 69°44' E 030°05'0 0.0
2018-Feb-21 13:58N 69°44' E 030°05'0 0.0
2018-Feb-21 13:29N 69°44' E 030°05'3 6.1
2018-Feb-21 12:59N 69°47' E 030°05'4 7.9
2018-Feb-21 12:30N 69°51' E 030°07'4 7.8
2018-Feb-21 11:58N 69°54' E 030°11'4 8.5
2018-Feb-21 11:30N 69°57' E 030°20'4 8.7
2018-Feb-21 11:00N 69°59' E 030°31'4 8.8
2018-Feb-21 10:30N 70°02' E 030°41'5 8.8
2018-Feb-21 10:00N 70°04' E 030°52'3 7.0
2018-Feb-21 09:30N 70°06' E 031°01'3 5.6
2018-Feb-21 08:59N 70°06' E 031°09'3 5.5
2018-Feb-21 08:29N 70°07' E 031°17'3 6.3
2018-Feb-21 08:00N 70°08' E 031°26'4 8.8
2018-Feb-21 07:30N 70°09' E 031°39'5 9.7
2018-Feb-21 06:59N 70°10' E 031°53'71 7.0
2018-Feb-20 20:51N 69°03' E 033°05'2 6.2
2018-Feb-20 20:30N 69°01' E 033°03'3 6.5
2018-Feb-20 20:00N 68°58' E 033°02'2 2.8
2018-Feb-20 19:25N 68°57' E 033°02'0 0.0
2018-Feb-20 18:58N 68°57' E 033°02'0 0.0
2018-Feb-20 18:28N 68°57' E 033°02'0 0.0
2018-Feb-20 17:58N 68°57' E 033°02'0 0.0
2018-Feb-20 17:28N 68°57' E 033°02'0 0.0
2018-Feb-20 16:58N 68°57' E 033°02'0 0.0
2018-Feb-20 16:28N 68°57' E 033°02'0 0.0
2018-Feb-20 15:58N 68°57' E 033°02'0 0.0
2018-Feb-20 15:28N 68°57' E 033°02'0 0.0
2018-Feb-20 14:58N 68°57' E 033°02'0 0.0
2018-Feb-20 14:28N 68°57' E 033°02'0 0.0
2018-Feb-20 13:58N 68°57' E 033°02'0 0.0
2018-Feb-20 13:28N 68°57' E 033°02'0 0.0
2018-Feb-20 12:58N 68°57' E 033°02'0 0.0
2018-Feb-20 12:28N 68°57' E 033°02'0 0.0
2018-Feb-20 11:58N 68°57' E 033°02'0 0.0
2018-Feb-20 11:28N 68°57' E 033°02'0 0.0
2018-Feb-20 10:58N 68°57' E 033°02'0 0.0
2018-Feb-20 10:28N 68°57' E 033°02'0 0.0
2018-Feb-20 09:58N 68°57' E 033°02'0 0.0
2018-Feb-20 09:25N 68°57' E 033°02'0 0.0
2018-Feb-20 08:58N 68°57' E 033°02'0 0.0
2018-Feb-20 08:28N 68°57' E 033°02'0 0.0
2018-Feb-20 07:58N 68°57' E 033°02'0 0.0
2018-Feb-20 07:28N 68°57' E 033°02'0 0.0
2018-Feb-20 06:58N 68°57' E 033°02'0 0.0
2018-Feb-20 06:28N 68°57' E 033°02'0 0.0
2018-Feb-20 05:58N 68°57' E 033°02'0 0.0
2018-Feb-20 05:28N 68°57' E 033°02'0 0.0
2018-Feb-20 04:58N 68°57' E 033°02'0 0.0
2018-Feb-20 04:28N 68°57' E 033°02'0 0.0
2018-Feb-20 03:58N 68°57' E 033°02'0 0.0
2018-Feb-20 03:28N 68°57' E 033°02'0 0.0
2018-Feb-20 02:58N 68°57' E 033°02'0 0.0
2018-Feb-20 02:28N 68°57' E 033°02'0 0.0
2018-Feb-20 01:58N 68°57' E 033°02'0 0.0
2018-Feb-20 01:28N 68°57' E 033°02'0 0.0
2018-Feb-20 00:58N 68°57' E 033°02'0 0.0
2018-Feb-20 00:28N 68°57' E 033°02'0 0.0
2018-Feb-19 23:58N 68°57' E 033°02'0 0.0
2018-Feb-19 23:28N 68°57' E 033°02'0 0.0
2018-Feb-19 22:58N 68°57' E 033°02'0 0.0
2018-Feb-19 22:28N 68°57' E 033°02'0 0.0
2018-Feb-19 21:55N 68°57' E 033°02'0 0.0
2018-Feb-19 21:25N 68°57' E 033°02'0 0.0
2018-Feb-19 20:58N 68°57' E 033°02'0 0.0
2018-Feb-19 20:28N 68°57' E 033°02'0 0.0
2018-Feb-19 19:55N 68°57' E 033°02'0 0.0
2018-Feb-19 19:28N 68°57' E 033°02'0 0.0
2018-Feb-19 18:58N 68°57' E 033°02'0 0.0
2018-Feb-19 18:28N 68°57' E 033°02'0 0.0
2018-Feb-19 17:58N 68°57' E 033°02'0 0.0
2018-Feb-19 17:28N 68°57' E 033°02'0 0.0
2018-Feb-19 16:55N 68°57' E 033°02'0 0.0
2018-Feb-19 16:28N 68°57' E 033°02'0 0.0
2018-Feb-19 15:58N 68°57' E 033°02'0 0.0
2018-Feb-19 15:28N 68°57' E 033°02'0 0.0
2018-Feb-19 14:58N 68°57' E 033°02'0 0.0
2018-Feb-19 14:28N 68°57' E 033°02'0 0.0
2018-Feb-19 13:58N 68°57' E 033°02'0 0.0
2018-Feb-19 13:28N 68°57' E 033°02'0 0.0
2018-Feb-19 12:58N 68°57' E 033°02'0 0.0
2018-Feb-19 12:28N 68°57' E 033°02'0 0.0
2018-Feb-19 11:58N 68°57' E 033°02'0 0.0
2018-Feb-19 11:28N 68°57' E 033°02'0 0.0
2018-Feb-19 10:55N 68°57' E 033°02'0 0.0
2018-Feb-19 10:28N 68°57' E 033°02'0 0.0
2018-Feb-19 09:55N 68°57' E 033°02'0 0.0
2018-Feb-19 09:28N 68°57' E 033°02'0 0.0
2018-Feb-19 08:58N 68°57' E 033°02'0 0.0
2018-Feb-19 08:25N 68°57' E 033°02'0 0.0
2018-Feb-19 07:58N 68°57' E 033°02'0 0.0
2018-Feb-19 07:28N 68°57' E 033°02'0 0.0
2018-Feb-19 06:58N 68°57' E 033°02'0 0.0
2018-Feb-19 06:28N 68°57' E 033°02'0 0.0
2018-Feb-19 06:00N 68°57' E 033°02'0 0.0
2018-Feb-19 05:30N 68°57' E 033°02'0 0.0
2018-Feb-19 05:00N 68°57' E 033°02'0 0.0
2018-Feb-19 04:30N 68°57' E 033°02'0 0.0
2018-Feb-19 04:00N 68°57' E 033°02'0 0.0
2018-Feb-19 03:30N 68°57' E 033°02'0 0.0
2018-Feb-19 03:00N 68°57' E 033°02'0 0.0
2018-Feb-19 02:30N 68°57' E 033°02'0 0.0
2018-Feb-19 02:00N 68°57' E 033°02'0 0.0
2018-Feb-19 01:30N 68°57' E 033°02'0 0.0
2018-Feb-19 01:00N 68°57' E 033°02'0 0.0
2018-Feb-19 00:30N 68°57' E 033°02'0 0.0
2018-Feb-19 00:00N 68°57' E 033°02'0 0.0
2018-Feb-18 23:30N 68°57' E 033°02'0 0.0
2018-Feb-18 23:00N 68°57' E 033°02'0 0.0
2018-Feb-18 22:30N 68°57' E 033°02'0 0.0
2018-Feb-18 22:00N 68°57' E 033°02'0 0.0
2018-Feb-18 21:30N 68°57' E 033°02'0 0.0
2018-Feb-18 21:00N 68°57' E 033°02'0 0.0
2018-Feb-18 20:30N 68°57' E 033°02'0 0.0
2018-Feb-18 20:00N 68°57' E 033°02'0 0.0
2018-Feb-18 19:30N 68°57' E 033°02'0 0.0
2018-Feb-18 19:00N 68°57' E 033°02'0 0.0
2018-Feb-18 18:30N 68°57' E 033°02'0 0.0
2018-Feb-18 18:00N 68°57' E 033°02'0 0.0
2018-Feb-18 17:30N 68°57' E 033°02'0 0.0
2018-Feb-18 17:00N 68°57' E 033°02'0 0.0
2018-Feb-18 16:30N 68°57' E 033°02'0 0.0
2018-Feb-18 16:00N 68°57' E 033°02'0 0.0
2018-Feb-18 15:30N 68°57' E 033°02'0 0.0
2018-Feb-18 15:00N 68°57' E 033°02'0 0.0
2018-Feb-18 14:30N 68°57' E 033°02'0 0.0
2018-Feb-18 14:00N 68°57' E 033°02'0 0.0
2018-Feb-18 13:30N 68°57' E 033°02'0 0.0
2018-Feb-18 13:00N 68°57' E 033°02'0 0.0
2018-Feb-18 12:24N 68°57' E 033°02'0 0.0
2018-Feb-18 12:00N 68°57' E 033°02'0 0.0
2018-Feb-18 11:30N 68°57' E 033°02'0 0.0
2018-Feb-18 11:00N 68°57' E 033°02'0 0.0
2018-Feb-18 10:30N 68°57' E 033°02'0 0.0
2018-Feb-18 10:00N 68°57' E 033°02'0 0.0
2018-Feb-18 09:30N 68°57' E 033°02'0 0.0
2018-Feb-18 09:00N 68°57' E 033°02'0 0.0
2018-Feb-18 08:30N 68°57' E 033°02'0 0.0
2018-Feb-18 08:00N 68°57' E 033°02'0 0.0
2018-Feb-18 07:30N 68°57' E 033°02'0 0.0
2018-Feb-18 07:00N 68°57' E 033°02'0 0.0
2018-Feb-18 06:30N 68°57' E 033°02'0 0.0
2018-Feb-18 06:00N 68°57' E 033°02'0 0.0
2018-Feb-18 05:27N 68°57' E 033°02'0 0.0
2018-Feb-18 05:00N 68°57' E 033°02'0 0.0
2018-Feb-18 04:27N 68°57' E 033°02'0 0.0
2018-Feb-18 04:00N 68°57' E 033°02'0 0.0
2018-Feb-18 03:30N 68°57' E 033°02'0 0.0
2018-Feb-18 03:00N 68°57' E 033°02'0 0.0
2018-Feb-18 02:30N 68°57' E 033°02'0 0.0
2018-Feb-18 02:00N 68°57' E 033°02'0 0.0
2018-Feb-18 01:30N 68°57' E 033°02'0 0.0
2018-Feb-18 01:00N 68°57' E 033°02'0 0.0
2018-Feb-18 00:30N 68°57' E 033°02'0 0.0
2018-Feb-18 00:00N 68°57' E 033°02'0 0.0
2018-Feb-17 23:30N 68°57' E 033°02'0 0.0
2018-Feb-17 23:00N 68°57' E 033°02'0 0.0
2018-Feb-17 22:30N 68°57' E 033°02'0 0.0
2018-Feb-17 21:51N 68°57' E 033°02'0 0.0
2018-Feb-17 21:30N 68°57' E 033°02'0 0.0
2018-Feb-17 21:00N 68°57' E 033°02'0 0.0
2018-Feb-17 20:30N 68°57' E 033°02'0 0.0
2018-Feb-17 20:00N 68°57' E 033°02'0 0.0
2018-Feb-17 19:27N 68°57' E 033°02'0 0.0
2018-Feb-17 19:00N 68°57' E 033°02'0 0.0
2018-Feb-17 18:27N 68°57' E 033°02'0 0.0
2018-Feb-17 18:00N 68°57' E 033°02'0 0.0
2018-Feb-17 17:30N 68°57' E 033°02'0 0.0
2018-Feb-17 17:00N 68°57' E 033°02'0 0.0
2018-Feb-17 16:30N 68°57' E 033°02'0 0.0
2018-Feb-17 16:00N 68°57' E 033°02'0 0.0
2018-Feb-17 15:30N 68°57' E 033°02'0 0.0
2018-Feb-17 15:00N 68°57' E 033°02'0 0.0
2018-Feb-17 14:27N 68°57' E 033°02'0 0.0
2018-Feb-17 14:00N 68°57' E 033°02'0 0.0
2018-Feb-17 13:30N 68°57' E 033°02'0 0.0
2018-Feb-17 13:00N 68°57' E 033°02'0 0.0
2018-Feb-17 12:30N 68°57' E 033°02'0 0.0
2018-Feb-17 12:00N 68°57' E 033°02'0 0.0
2018-Feb-17 11:30N 68°57' E 033°02'0 0.0
2018-Feb-17 11:00N 68°57' E 033°02'0 0.0
2018-Feb-17 10:30N 68°57' E 033°02'0 0.0
2018-Feb-17 10:00N 68°57' E 033°02'0 0.0
2018-Feb-17 09:30N 68°57' E 033°02'0 0.0
2018-Feb-17 09:00N 68°57' E 033°02'0 0.0
2018-Feb-17 08:30N 68°57' E 033°02'0 0.0
2018-Feb-17 08:00N 68°57' E 033°02'0 0.0
2018-Feb-17 07:30N 68°57' E 033°02'0 0.0
2018-Feb-17 07:00N 68°57' E 033°02'0 0.0
2018-Feb-17 06:30N 68°57' E 033°02'0 0.0
2018-Feb-17 06:00N 68°57' E 033°02'0 0.0
2018-Feb-17 05:27N 68°57' E 033°02'0 0.0
2018-Feb-17 05:00N 68°57' E 033°02'0 0.0
2018-Feb-17 04:30N 68°57' E 033°02'0 0.0
2018-Feb-17 04:00N 68°57' E 033°02'0 0.0
2018-Feb-17 03:30N 68°57' E 033°02'0 0.0
2018-Feb-17 03:00N 68°57' E 033°02'0 0.0
2018-Feb-17 02:27N 68°57' E 033°02'0 0.0
2018-Feb-17 02:00N 68°57' E 033°02'0 0.0
2018-Feb-17 01:30N 68°57' E 033°02'0 0.0
2018-Feb-17 01:00N 68°57' E 033°02'0 0.0
2018-Feb-17 00:30N 68°57' E 033°02'0 0.0
2018-Feb-17 00:00N 68°57' E 033°02'0 0.0
2018-Feb-16 23:30N 68°57' E 033°02'0 0.0
2018-Feb-16 23:00N 68°57' E 033°02'0 0.0
2018-Feb-16 22:30N 68°57' E 033°02'0 0.0
2018-Feb-16 22:00N 68°57' E 033°02'0 0.0
2018-Feb-16 21:30N 68°57' E 033°02'0 0.0
2018-Feb-16 21:00N 68°57' E 033°02'0 0.0
2018-Feb-16 20:27N 68°57' E 033°02'0 0.0
2018-Feb-16 19:57N 68°57' E 033°02'0 0.0
2018-Feb-16 19:30N 68°57' E 033°02'0 0.0
2018-Feb-16 19:00N 68°57' E 033°02'0 0.0
2018-Feb-16 18:30N 68°57' E 033°02'0 0.0
2018-Feb-16 18:00N 68°57' E 033°02'0 0.0
2018-Feb-16 17:30N 68°57' E 033°02'0 0.0
2018-Feb-16 17:00N 68°57' E 033°02'0 0.0
2018-Feb-16 16:24N 68°57' E 033°02'0 0.0
2018-Feb-16 16:00N 68°57' E 033°02'0 0.0
2018-Feb-16 15:30N 68°57' E 033°02'0 0.0
2018-Feb-16 14:57N 68°57' E 033°02'0 0.0
2018-Feb-16 14:30N 68°57' E 033°02'0 0.0
2018-Feb-16 14:00N 68°57' E 033°02'0 0.0
2018-Feb-16 13:30N 68°57' E 033°02'0 0.0
2018-Feb-16 13:00N 68°57' E 033°02'0 0.0
2018-Feb-16 12:30N 68°57' E 033°02'0 0.0
2018-Feb-16 12:00N 68°57' E 033°02'0 0.0
2018-Feb-16 11:30N 68°57' E 033°02'0 0.0
2018-Feb-16 11:00N 68°57' E 033°02'0 0.0
2018-Feb-16 10:30N 68°57' E 033°02'0 0.0
2018-Feb-16 10:00N 68°57' E 033°02'0 0.0
2018-Feb-16 09:30N 68°57' E 033°02'0 0.0
2018-Feb-16 09:00N 68°57' E 033°02'0 0.0
2018-Feb-16 08:30N 68°57' E 033°02'0 0.0
2018-Feb-16 08:00N 68°57' E 033°02'0 0.0
2018-Feb-16 07:27N 68°57' E 033°02'0 0.0
2018-Feb-16 07:00N 68°57' E 033°02'0 0.0
2018-Feb-16 06:30N 68°57' E 033°02'0 0.0
2018-Feb-16 05:57N 68°57' E 033°02'0 0.0
2018-Feb-16 05:30N 68°57' E 033°02'0 0.0
2018-Feb-16 04:54N 68°57' E 033°02'0 0.0
2018-Feb-16 04:30N 68°57' E 033°02'0 0.0
2018-Feb-16 04:00N 68°57' E 033°02'0 0.0
2018-Feb-16 03:30N 68°57' E 033°02'0 0.0
2018-Feb-16 03:00N 68°57' E 033°02'0 0.0
2018-Feb-16 02:24N 68°57' E 033°02'0 0.0
2018-Feb-16 02:00N 68°57' E 033°02'0 0.0
2018-Feb-16 01:30N 68°57' E 033°02'0 0.0
2018-Feb-16 01:00N 68°57' E 033°02'0 0.0
2018-Feb-16 00:30N 68°57' E 033°02'0 0.0
2018-Feb-16 00:00N 68°57' E 033°02'0 0.0
2018-Feb-15 23:30N 68°57' E 033°02'0 0.0
2018-Feb-15 23:00N 68°57' E 033°02'0 0.0
2018-Feb-15 22:30N 68°57' E 033°02'0 0.0
2018-Feb-15 22:00N 68°57' E 033°02'0 0.0
2018-Feb-15 21:30N 68°57' E 033°02'0 0.0
2018-Feb-15 21:00N 68°57' E 033°02'0 0.0
2018-Feb-15 20:30N 68°57' E 033°02'0 0.0
2018-Feb-15 20:00N 68°57' E 033°02'0 0.0
2018-Feb-15 19:30N 68°57' E 033°02'0 0.0
2018-Feb-15 19:00N 68°57' E 033°02'0 0.0
2018-Feb-15 18:30N 68°57' E 033°02'0 0.0
2018-Feb-15 18:00N 68°57' E 033°02'0 0.0
2018-Feb-15 17:30N 68°57' E 033°02'0 0.0
2018-Feb-15 17:00N 68°57' E 033°02'0 0.0
2018-Feb-15 16:27N 68°57' E 033°02'0 0.0
2018-Feb-15 16:00N 68°57' E 033°02'0 0.0
2018-Feb-15 15:30N 68°57' E 033°02'0 0.0
2018-Feb-15 15:00N 68°57' E 033°02'0 0.0
2018-Feb-15 14:30N 68°57' E 033°02'0 0.0
2018-Feb-15 14:00N 68°57' E 033°02'0 0.0
2018-Feb-15 13:30N 68°57' E 033°02'0 0.0
2018-Feb-15 13:00N 68°57' E 033°02'0 0.0
2018-Feb-15 12:30N 68°57' E 033°02'0 0.0
2018-Feb-15 12:00N 68°57' E 033°02'0 0.0
2018-Feb-15 11:30N 68°57' E 033°02'0 0.0
2018-Feb-15 11:00N 68°57' E 033°02'0 0.0
2018-Feb-15 10:30N 68°57' E 033°02'0 0.0
2018-Feb-15 09:57N 68°57' E 033°02'0 0.0
2018-Feb-15 09:30N 68°57' E 033°02'0 0.0
2018-Feb-15 09:00N 68°57' E 033°02'0 0.0
2018-Feb-15 08:30N 68°57' E 033°02'0 0.0
2018-Feb-15 08:00N 68°57' E 033°02'0 0.0
2018-Feb-15 07:30N 68°57' E 033°02'0 0.0
2018-Feb-15 07:00N 68°57' E 033°02'0 0.0
2018-Feb-15 06:24N 68°57' E 033°02'0 0.0
2018-Feb-15 06:00N 68°57' E 033°02'0 0.0
2018-Feb-15 05:30N 68°57' E 033°02'0 0.0
2018-Feb-15 05:00N 68°57' E 033°02'0 0.0
2018-Feb-15 04:30N 68°57' E 033°02'0 0.0
2018-Feb-15 04:00N 68°57' E 033°02'0 0.0
2018-Feb-15 03:27N 68°57' E 033°02'0 0.0
2018-Feb-15 03:00N 68°57' E 033°02'0 0.0
2018-Feb-15 02:30N 68°57' E 033°02'0 0.0
2018-Feb-15 01:54N 68°57' E 033°02'0 0.0
2018-Feb-15 01:30N 68°57' E 033°02'0 0.0
2018-Feb-15 01:00N 68°57' E 033°02'0 0.0
2018-Feb-15 00:30N 68°57' E 033°02'0 0.0
2018-Feb-15 00:00N 68°57' E 033°02'0 0.0
2018-Feb-14 23:30N 68°57' E 033°02'0 0.0
2018-Feb-14 23:01N 68°57' E 033°02'0 0.0
2018-Feb-14 22:31N 68°57' E 033°02'1 2.2
2018-Feb-14 22:01N 68°58' E 033°02'3 5.8
2018-Feb-14 21:31N 69°01' E 033°03'3 6.0
2018-Feb-14 21:01N 69°03' E 033°05'0 0.1
2018-Feb-14 19:09N 69°03' E 033°05'1 5.8
2018-Feb-14 19:01N 69°03' E 033°04'3 6.1
2018-Feb-14 18:30N 68°60' E 033°03'3 5.1
2018-Feb-14 18:00N 68°57' E 033°01'1 1.4
2018-Feb-14 17:30N 68°57' E 033°02'0 0.0
2018-Feb-14 17:00N 68°57' E 033°02'0 0.0
2018-Feb-14 16:31N 68°57' E 033°02'0 0.0
2018-Feb-14 16:00N 68°57' E 033°02'0 0.0
2018-Feb-14 15:31N 68°57' E 033°02'0 0.0
2018-Feb-14 15:00N 68°57' E 033°02'0 0.0
2018-Feb-14 14:31N 68°57' E 033°02'0 0.0
2018-Feb-14 14:00N 68°57' E 033°02'0 0.0
2018-Feb-14 13:31N 68°57' E 033°02'0 0.0
2018-Feb-14 13:01N 68°57' E 033°02'0 0.0
2018-Feb-14 12:31N 68°57' E 033°02'0 0.0
2018-Feb-14 11:59N 68°57' E 033°02'0 0.0
2018-Feb-14 11:30N 68°57' E 033°02'0 0.0
2018-Feb-14 11:01N 68°57' E 033°02'0 0.0
2018-Feb-14 10:30N 68°57' E 033°02'0 0.0
2018-Feb-14 10:01N 68°57' E 033°02'0 0.0
2018-Feb-14 09:30N 68°57' E 033°02'0 0.0
2018-Feb-14 09:01N 68°57' E 033°02'0 0.0
2018-Feb-14 08:30N 68°57' E 033°02'0 0.0
2018-Feb-14 08:00N 68°57' E 033°02'0 0.0
2018-Feb-14 07:30N 68°57' E 033°02'0 0.0
2018-Feb-14 07:01N 68°57' E 033°02'0 0.0
2018-Feb-14 06:30N 68°57' E 033°02'0 0.0
2018-Feb-14 06:01N 68°57' E 033°02'0 0.0
2018-Feb-14 05:31N 68°57' E 033°02'0 0.0
2018-Feb-14 05:01N 68°57' E 033°02'0 0.0
2018-Feb-14 04:30N 68°57' E 033°02'0 0.0
2018-Feb-14 04:01N 68°57' E 033°02'0 0.0
2018-Feb-14 03:30N 68°57' E 033°02'0 0.0
2018-Feb-14 03:00N 68°57' E 033°02'0 0.0
2018-Feb-14 02:31N 68°57' E 033°02'0 0.0
2018-Feb-14 02:00N 68°57' E 033°02'0 0.0
2018-Feb-14 01:30N 68°57' E 033°02'0 0.0
2018-Feb-14 01:01N 68°57' E 033°02'0 0.0
2018-Feb-14 00:31N 68°57' E 033°02'0 0.0
2018-Feb-14 00:00N 68°57' E 033°02'0 0.0
2018-Feb-13 23:31N 68°57' E 033°02'0 0.0
2018-Feb-13 23:01N 68°57' E 033°02'0 0.0
2018-Feb-13 22:31N 68°57' E 033°02'0 0.0
2018-Feb-13 22:00N 68°57' E 033°02'0 0.0
2018-Feb-13 21:31N 68°57' E 033°02'0 0.0
2018-Feb-13 21:01N 68°57' E 033°02'0 0.0
2018-Feb-13 20:31N 68°57' E 033°02'0 0.0
2018-Feb-13 20:01N 68°57' E 033°02'0 0.0
2018-Feb-13 19:30N 68°57' E 033°02'0 0.0
2018-Feb-13 19:01N 68°57' E 033°02'0 0.0
2018-Feb-13 18:31N 68°57' E 033°02'0 0.0
2018-Feb-13 18:00N 68°57' E 033°02'0 0.0
2018-Feb-13 17:31N 68°57' E 033°02'0 0.0
2018-Feb-13 17:01N 68°57' E 033°02'0 0.0
2018-Feb-13 16:31N 68°57' E 033°02'0 0.0
2018-Feb-13 16:01N 68°57' E 033°02'0 0.0
2018-Feb-13 15:31N 68°57' E 033°02'0 0.0
2018-Feb-13 15:00N 68°57' E 033°02'0 0.0
2018-Feb-13 14:30N 68°57' E 033°02'0 0.0
2018-Feb-13 14:01N 68°57' E 033°02'0 0.0
2018-Feb-13 13:30N 68°57' E 033°02'0 0.0
2018-Feb-13 13:00N 68°57' E 033°02'  
Track history (hours):
 
Tides and Currents Weather Stations Pressure Air Temp Water Temp Dewpoint Dewpoint Depression Visibility Wind Speed Wind Dir Waves Ship Positions

Belomorsk

Last reported at 2018-Feb-23 12:52 UTC. Time now 2018-Feb-24 13:44 UTC.
Position N 70°32' E 018°43'.

Length 69 m; draft 6.5 m.

Type: Fishing. MMSI: 273370020.

Date/timePositionNaut miles runAvg speedWind from/ knotsBaromVisibWave heightAir tempDewpointWater temp
2018-Feb-23 12:52N 70°32' E 018°43'3 9.1
2018-Feb-23 12:30N 70°33' E 018°53'5 9.5
2018-Feb-23 12:00N 70°34' E 019°06'5 9.3
2018-Feb-23 11:30N 70°36' E 019°19'5 9.1
2018-Feb-23 11:00N 70°37' E 019°32'5 9.4
2018-Feb-23 10:30N 70°39' E 019°46'5 9.4
2018-Feb-23 10:00N 70°40' E 019°60'5 6.5
2018-Feb-23 09:10N 70°41' E 020°15'0 2.1
2018-Feb-23 09:00N 70°41' E 020°16'2 4.0
2018-Feb-23 08:28N 70°42' E 020°23'2 3.9
2018-Feb-23 08:00N 70°43' E 020°28'2 4.0
2018-Feb-23 07:30N 70°43' E 020°33'2 3.6
2018-Feb-23 06:54N 70°45' E 020°35'2 3.9
2018-Feb-23 06:30N 70°46' E 020°31'1 1.1
2018-Feb-23 06:00N 70°47' E 020°32'4 1.7
2018-Feb-23 03:53N 70°49' E 020°23'6 4.4
2018-Feb-23 02:37N 70°49' E 020°40'1 8.6
2018-Feb-23 02:30N 70°50' E 020°42'5 9.3
2018-Feb-23 02:00N 70°51' E 020°55'510.0
2018-Feb-23 01:30N 70°53' E 021°10'510.4
2018-Feb-23 01:00N 70°55' E 021°24'510.6
2018-Feb-23 00:30N 70°57' E 021°39'510.6
2018-Feb-23 00:00N 70°60' E 021°53'510.4
2018-Feb-22 23:30N 71°02' E 022°08'510.0
2018-Feb-22 23:00N 71°04' E 022°22'5 9.5
2018-Feb-22 22:30N 71°06' E 022°35'5 9.8
2018-Feb-22 22:00N 71°09' E 022°48'510.2
2018-Feb-22 21:30N 71°11' E 023°02'5 9.5
2018-Feb-22 21:00N 71°13' E 023°16'4 8.8
2018-Feb-22 20:29N 71°15' E 023°28'5 9.4
2018-Feb-22 20:00N 71°17' E 023°40'5 9.3
2018-Feb-22 19:30N 71°19' E 023°53'5 9.1
2018-Feb-22 18:59N 71°21' E 024°08'4 9.0
2018-Feb-22 18:30N 71°21' E 024°21'5 9.5
2018-Feb-22 18:00N 71°21' E 024°36'5 9.6
2018-Feb-22 17:30N 71°22' E 024°51'5 9.7
2018-Feb-22 17:00N 71°23' E 025°06'5 9.9
2018-Feb-22 16:30N 71°24' E 025°21'5 9.4
2018-Feb-22 16:00N 71°25' E 025°36'5 9.4
2018-Feb-22 15:30N 71°25' E 025°50'5 9.4
2018-Feb-22 15:00N 71°25' E 026°05'5 9.8
2018-Feb-22 14:29N 71°25' E 026°21'510.1
2018-Feb-22 14:00N 71°25' E 026°36'510.0
2018-Feb-22 13:30N 71°24' E 026°52'5 9.8
2018-Feb-22 13:00N 71°23' E 027°07'5 9.5
2018-Feb-22 12:30N 71°23' E 027°22'5 9.9
2018-Feb-22 12:00N 71°22' E 027°37'510.4
2018-Feb-22 11:30N 71°21' E 027°53'510.1
2018-Feb-22 11:00N 71°21' E 028°09'510.0
2018-Feb-22 10:29N 71°20' E 028°25'5 9.6
2018-Feb-22 10:00N 71°17' E 028°36'5 9.3
2018-Feb-22 09:30N 71°14' E 028°48'5 8.8
2018-Feb-22 09:00N 71°12' E 028°60'4 9.0
2018-Feb-22 08:30N 71°10' E 029°11'4 8.9
2018-Feb-22 08:00N 71°07' E 029°23'4 8.9
2018-Feb-22 07:30N 71°05' E 029°34'5 8.9
2018-Feb-22 07:00N 71°02' E 029°46'4 9.0
2018-Feb-22 06:30N 70°60' E 029°57'5 9.4
2018-Feb-22 06:00N 70°57' E 030°09'5 9.7
2018-Feb-22 05:30N 70°55' E 030°22'5 9.5
2018-Feb-22 05:00N 70°52' E 030°34'5 9.3
2018-Feb-22 04:30N 70°49' E 030°45'5 9.7
2018-Feb-22 04:00N 70°46' E 030°57'5 9.7
2018-Feb-22 03:30N 70°43' E 031°09'5 9.9
2018-Feb-22 03:00N 70°40' E 031°20'510.0
2018-Feb-22 02:30N 70°36' E 031°31'16 9.2
2018-Feb-22 00:44N 70°21' E 031°49'2 9.0
2018-Feb-22 00:30N 70°19' E 031°47'5 8.6
2018-Feb-21 23:59N 70°16' E 031°38'4 9.2
2018-Feb-21 23:30N 70°13' E 031°29'5 9.2
2018-Feb-21 23:00N 70°10' E 031°18'5 9.6
2018-Feb-21 22:30N 70°08' E 031°06'5 9.3
2018-Feb-21 21:59N 70°05' E 030°54'1 2.9
2018-Feb-21 21:30N 70°04' E 030°51'1 2.8
2018-Feb-21 21:00N 70°03' E 030°48'2 4.1
2018-Feb-21 20:30N 70°02' E 030°43'3 5.6
2018-Feb-21 20:01N 70°00' E 030°37'3 6.6
2018-Feb-21 19:30N 69°58' E 030°29'4 7.6
2018-Feb-21 19:00N 69°56' E 030°20'4 7.9
2018-Feb-21 18:30N 69°54' E 030°10'4 8.4
2018-Feb-21 18:00N 69°50' E 030°07'4 8.2
2018-Feb-21 17:30N 69°46' E 030°05'2 4.1
2018-Feb-21 16:58N 69°44' E 030°05'0 0.0
2018-Feb-21 16:28N 69°44' E 030°05'0 0.0
2018-Feb-21 15:58N 69°44' E 030°05'0 0.0
2018-Feb-21 15:28N 69°44' E 030°05'0 0.0
2018-Feb-21 14:58N 69°44' E 030°05'0 0.0
2018-Feb-21 14:28N 69°44' E 030°05'0 0.0
2018-Feb-21 13:58N 69°44' E 030°05'0 0.0
2018-Feb-21 13:29N 69°44' E 030°05'3 6.1
2018-Feb-21 12:59N 69°47' E 030°05'4 7.9
2018-Feb-21 12:30N 69°51' E 030°07'4 7.8
2018-Feb-21 11:58N 69°54' E 030°11'4 8.5
2018-Feb-21 11:30N 69°57' E 030°20'4 8.7
2018-Feb-21 11:00N 69°59' E 030°31'4 8.8
2018-Feb-21 10:30N 70°02' E 030°41'5 8.8
2018-Feb-21 10:00N 70°04' E 030°52'3 7.0
2018-Feb-21 09:30N 70°06' E 031°01'3 5.6
2018-Feb-21 08:59N 70°06' E 031°09'3 5.5
2018-Feb-21 08:29N 70°07' E 031°17'3 6.3
2018-Feb-21 08:00N 70°08' E 031°26'4 8.8
2018-Feb-21 07:30N 70°09' E 031°39'5 9.7
2018-Feb-21 06:59N 70°10' E 031°53'71 7.0
2018-Feb-20 20:51N 69°03' E 033°05'2 6.2
2018-Feb-20 20:30N 69°01' E 033°03'3 6.5
2018-Feb-20 20:00N 68°58' E 033°02'2 2.8
2018-Feb-20 19:25N 68°57' E 033°02'0 0.0
2018-Feb-20 18:58N 68°57' E 033°02'0 0.0
2018-Feb-20 18:28N 68°57' E 033°02'0 0.0
2018-Feb-20 17:58N 68°57' E 033°02'0 0.0
2018-Feb-20 17:28N 68°57' E 033°02'0 0.0
2018-Feb-20 16:58N 68°57' E 033°02'0 0.0
2018-Feb-20 16:28N 68°57' E 033°02'0 0.0
2018-Feb-20 15:58N 68°57' E 033°02'0 0.0
2018-Feb-20 15:28N 68°57' E 033°02'0 0.0
2018-Feb-20 14:58N 68°57' E 033°02'0 0.0
2018-Feb-20 14:28N 68°57' E 033°02'0 0.0
2018-Feb-20 13:58N 68°57' E 033°02'0 0.0
2018-Feb-20 13:28N 68°57' E 033°02'0 0.0
2018-Feb-20 12:58N 68°57' E 033°02'0 0.0
2018-Feb-20 12:28N 68°57' E 033°02'0 0.0
2018-Feb-20 11:58N 68°57' E 033°02'0 0.0
2018-Feb-20 11:28N 68°57' E 033°02'0 0.0
2018-Feb-20 10:58N 68°57' E 033°02'0 0.0
2018-Feb-20 10:28N 68°57' E 033°02'0 0.0
2018-Feb-20 09:58N 68°57' E 033°02'0 0.0
2018-Feb-20 09:25N 68°57' E 033°02'0 0.0
2018-Feb-20 08:58N 68°57' E 033°02'0 0.0
2018-Feb-20 08:28N 68°57' E 033°02'0 0.0
2018-Feb-20 07:58N 68°57' E 033°02'0 0.0
2018-Feb-20 07:28N 68°57' E 033°02'0 0.0
2018-Feb-20 06:58N 68°57' E 033°02'0 0.0
2018-Feb-20 06:28N 68°57' E 033°02'0 0.0
2018-Feb-20 05:58N 68°57' E 033°02'0 0.0
2018-Feb-20 05:28N 68°57' E 033°02'0 0.0
2018-Feb-20 04:58N 68°57' E 033°02'0 0.0
2018-Feb-20 04:28N 68°57' E 033°02'0 0.0
2018-Feb-20 03:58N 68°57' E 033°02'0 0.0
2018-Feb-20 03:28N 68°57' E 033°02'0 0.0
2018-Feb-20 02:58N 68°57' E 033°02'0 0.0
2018-Feb-20 02:28N 68°57' E 033°02'0 0.0
2018-Feb-20 01:58N 68°57' E 033°02'0 0.0
2018-Feb-20 01:28N 68°57' E 033°02'0 0.0
2018-Feb-20 00:58N 68°57' E 033°02'0 0.0
2018-Feb-20 00:28N 68°57' E 033°02'0 0.0
2018-Feb-19 23:58N 68°57' E 033°02'0 0.0
2018-Feb-19 23:28N 68°57' E 033°02'0 0.0
2018-Feb-19 22:58N 68°57' E 033°02'0 0.0
2018-Feb-19 22:28N 68°57' E 033°02'0 0.0
2018-Feb-19 21:55N 68°57' E 033°02'0 0.0
2018-Feb-19 21:25N 68°57' E 033°02'0 0.0
2018-Feb-19 20:58N 68°57' E 033°02'0 0.0
2018-Feb-19 20:28N 68°57' E 033°02'0 0.0
2018-Feb-19 19:55N 68°57' E 033°02'0 0.0
2018-Feb-19 19:28N 68°57' E 033°02'0 0.0
2018-Feb-19 18:58N 68°57' E 033°02'0 0.0
2018-Feb-19 18:28N 68°57' E 033°02'0 0.0
2018-Feb-19 17:58N 68°57' E 033°02'0 0.0
2018-Feb-19 17:28N 68°57' E 033°02'0 0.0
2018-Feb-19 16:55N 68°57' E 033°02'0 0.0
2018-Feb-19 16:28N 68°57' E 033°02'0 0.0
2018-Feb-19 15:58N 68°57' E 033°02'0 0.0
2018-Feb-19 15:28N 68°57' E 033°02'0 0.0
2018-Feb-19 14:58N 68°57' E 033°02'0 0.0
2018-Feb-19 14:28N 68°57' E 033°02'0 0.0
2018-Feb-19 13:58N 68°57' E 033°02'0 0.0
2018-Feb-19 13:28N 68°57' E 033°02'0 0.0
2018-Feb-19 12:58N 68°57' E 033°02'0 0.0
2018-Feb-19 12:28N 68°57' E 033°02'0 0.0
2018-Feb-19 11:58N 68°57' E 033°02'0 0.0
2018-Feb-19 11:28N 68°57' E 033°02'0 0.0
2018-Feb-19 10:55N 68°57' E 033°02'0 0.0
2018-Feb-19 10:28N 68°57' E 033°02'0 0.0
2018-Feb-19 09:55N 68°57' E 033°02'0 0.0
2018-Feb-19 09:28N 68°57' E 033°02'0 0.0
2018-Feb-19 08:58N 68°57' E 033°02'0 0.0
2018-Feb-19 08:25N 68°57' E 033°02'0 0.0
2018-Feb-19 07:58N 68°57' E 033°02'0 0.0
2018-Feb-19 07:28N 68°57' E 033°02'0 0.0
2018-Feb-19 06:58N 68°57' E 033°02'0 0.0
2018-Feb-19 06:28N 68°57' E 033°02'0 0.0
2018-Feb-19 06:00N 68°57' E 033°02'0 0.0
2018-Feb-19 05:30N 68°57' E 033°02'0 0.0
2018-Feb-19 05:00N 68°57' E 033°02'0 0.0
2018-Feb-19 04:30N 68°57' E 033°02'0 0.0
2018-Feb-19 04:00N 68°57' E 033°02'0 0.0
2018-Feb-19 03:30N 68°57' E 033°02'0 0.0
2018-Feb-19 03:00N 68°57' E 033°02'0 0.0
2018-Feb-19 02:30N 68°57' E 033°02'0 0.0
2018-Feb-19 02:00N 68°57' E 033°02'0 0.0
2018-Feb-19 01:30N 68°57' E 033°02'0 0.0
2018-Feb-19 01:00N 68°57' E 033°02'0 0.0
2018-Feb-19 00:30N 68°57' E 033°02'0 0.0
2018-Feb-19 00:00N 68°57' E 033°02'0 0.0
2018-Feb-18 23:30N 68°57' E 033°02'0 0.0
2018-Feb-18 23:00N 68°57' E 033°02'0 0.0
2018-Feb-18 22:30N 68°57' E 033°02'0 0.0
2018-Feb-18 22:00N 68°57' E 033°02'0 0.0
2018-Feb-18 21:30N 68°57' E 033°02'0 0.0
2018-Feb-18 21:00N 68°57' E 033°02'0 0.0
2018-Feb-18 20:30N 68°57' E 033°02'0 0.0
2018-Feb-18 20:00N 68°57' E 033°02'0 0.0
2018-Feb-18 19:30N 68°57' E 033°02'0 0.0
2018-Feb-18 19:00N 68°57' E 033°02'0 0.0
2018-Feb-18 18:30N 68°57' E 033°02'0 0.0
2018-Feb-18 18:00N 68°57' E 033°02'0 0.0
2018-Feb-18 17:30N 68°57' E 033°02'0 0.0
2018-Feb-18 17:00N 68°57' E 033°02'0 0.0
2018-Feb-18 16:30N 68°57' E 033°02'0 0.0
2018-Feb-18 16:00N 68°57' E 033°02'0 0.0
2018-Feb-18 15:30N 68°57' E 033°02'0 0.0
2018-Feb-18 15:00N 68°57' E 033°02'0 0.0
2018-Feb-18 14:30N 68°57' E 033°02'0 0.0
2018-Feb-18 14:00N 68°57' E 033°02'0 0.0
2018-Feb-18 13:30N 68°57' E 033°02'0 0.0
2018-Feb-18 13:00N 68°57' E 033°02'0 0.0
2018-Feb-18 12:24N 68°57' E 033°02'0 0.0
2018-Feb-18 12:00N 68°57' E 033°02'0 0.0
2018-Feb-18 11:30N 68°57' E 033°02'0 0.0
2018-Feb-18 11:00N 68°57' E 033°02'0 0.0
2018-Feb-18 10:30N 68°57' E 033°02'0 0.0
2018-Feb-18 10:00N 68°57' E 033°02'0 0.0
2018-Feb-18 09:30N 68°57' E 033°02'0 0.0
2018-Feb-18 09:00N 68°57' E 033°02'0 0.0
2018-Feb-18 08:30N 68°57' E 033°02'0 0.0
2018-Feb-18 08:00N 68°57' E 033°02'0 0.0
2018-Feb-18 07:30N 68°57' E 033°02'0 0.0
2018-Feb-18 07:00N 68°57' E 033°02'0 0.0
2018-Feb-18 06:30N 68°57' E 033°02'0 0.0
2018-Feb-18 06:00N 68°57' E 033°02'0 0.0
2018-Feb-18 05:27N 68°57' E 033°02'0 0.0
2018-Feb-18 05:00N 68°57' E 033°02'0 0.0
2018-Feb-18 04:27N 68°57' E 033°02'0 0.0
2018-Feb-18 04:00N 68°57' E 033°02'0 0.0
2018-Feb-18 03:30N 68°57' E 033°02'0 0.0
2018-Feb-18 03:00N 68°57' E 033°02'0 0.0
2018-Feb-18 02:30N 68°57' E 033°02'0 0.0
2018-Feb-18 02:00N 68°57' E 033°02'0 0.0
2018-Feb-18 01:30N 68°57' E 033°02'0 0.0
2018-Feb-18 01:00N 68°57' E 033°02'0 0.0
2018-Feb-18 00:30N 68°57' E 033°02'0 0.0
2018-Feb-18 00:00N 68°57' E 033°02'0 0.0
2018-Feb-17 23:30N 68°57' E 033°02'0 0.0
2018-Feb-17 23:00N 68°57' E 033°02'0 0.0
2018-Feb-17 22:30N 68°57' E 033°02'0 0.0
2018-Feb-17 21:51N 68°57' E 033°02'0 0.0
2018-Feb-17 21:30N 68°57' E 033°02'0 0.0
2018-Feb-17 21:00N 68°57' E 033°02'0 0.0
2018-Feb-17 20:30N 68°57' E 033°02'0 0.0
2018-Feb-17 20:00N 68°57' E 033°02'0 0.0
2018-Feb-17 19:27N 68°57' E 033°02'0 0.0
2018-Feb-17 19:00N 68°57' E 033°02'0 0.0
2018-Feb-17 18:27N 68°57' E 033°02'0 0.0
2018-Feb-17 18:00N 68°57' E 033°02'0 0.0
2018-Feb-17 17:30N 68°57' E 033°02'0 0.0
2018-Feb-17 17:00N 68°57' E 033°02'0 0.0
2018-Feb-17 16:30N 68°57' E 033°02'0 0.0
2018-Feb-17 16:00N 68°57' E 033°02'0 0.0
2018-Feb-17 15:30N 68°57' E 033°02'0 0.0
2018-Feb-17 15:00N 68°57' E 033°02'0 0.0
2018-Feb-17 14:27N 68°57' E 033°02'0 0.0
2018-Feb-17 14:00N 68°57' E 033°02'0 0.0
2018-Feb-17 13:30N 68°57' E 033°02'0 0.0
2018-Feb-17 13:00N 68°57' E 033°02'0 0.0
2018-Feb-17 12:30N 68°57' E 033°02'0 0.0
2018-Feb-17 12:00N 68°57' E 033°02'0 0.0
2018-Feb-17 11:30N 68°57' E 033°02'0 0.0
2018-Feb-17 11:00N 68°57' E 033°02'0 0.0
2018-Feb-17 10:30N 68°57' E 033°02'0 0.0
2018-Feb-17 10:00N 68°57' E 033°02'0 0.0
2018-Feb-17 09:30N 68°57' E 033°02'0 0.0
2018-Feb-17 09:00N 68°57' E 033°02'0 0.0
2018-Feb-17 08:30N 68°57' E 033°02'0 0.0
2018-Feb-17 08:00N 68°57' E 033°02'0 0.0
2018-Feb-17 07:30N 68°57' E 033°02'0 0.0
2018-Feb-17 07:00N 68°57' E 033°02'0 0.0
2018-Feb-17 06:30N 68°57' E 033°02'0 0.0
2018-Feb-17 06:00N 68°57' E 033°02'0 0.0
2018-Feb-17 05:27N 68°57' E 033°02'0 0.0
2018-Feb-17 05:00N 68°57' E 033°02'0 0.0
2018-Feb-17 04:30N 68°57' E 033°02'0 0.0
2018-Feb-17 04:00N 68°57' E 033°02'0 0.0
2018-Feb-17 03:30N 68°57' E 033°02'0 0.0
2018-Feb-17 03:00N 68°57' E 033°02'0 0.0
2018-Feb-17 02:27N 68°57' E 033°02'0 0.0
2018-Feb-17 02:00N 68°57' E 033°02'0 0.0
2018-Feb-17 01:30N 68°57' E 033°02'0 0.0
2018-Feb-17 01:00N 68°57' E 033°02'0 0.0
2018-Feb-17 00:30N 68°57' E 033°02'0 0.0
2018-Feb-17 00:00N 68°57' E 033°02'0 0.0
2018-Feb-16 23:30N 68°57' E 033°02'0 0.0
2018-Feb-16 23:00N 68°57' E 033°02'0 0.0
2018-Feb-16 22:30N 68°57' E 033°02'0 0.0
2018-Feb-16 22:00N 68°57' E 033°02'0 0.0
2018-Feb-16 21:30N 68°57' E 033°02'0 0.0
2018-Feb-16 21:00N 68°57' E 033°02'0 0.0
2018-Feb-16 20:27N 68°57' E 033°02'0 0.0
2018-Feb-16 19:57N 68°57' E 033°02'0 0.0
2018-Feb-16 19:30N 68°57' E 033°02'0 0.0
2018-Feb-16 19:00N 68°57' E 033°02'0 0.0
2018-Feb-16 18:30N 68°57' E 033°02'0 0.0
2018-Feb-16 18:00N 68°57' E 033°02'0 0.0
2018-Feb-16 17:30N 68°57' E 033°02'0 0.0
2018-Feb-16 17:00N 68°57' E 033°02'0 0.0
2018-Feb-16 16:24N 68°57' E 033°02'0 0.0
2018-Feb-16 16:00N 68°57' E 033°02'0 0.0
2018-Feb-16 15:30N 68°57' E 033°02'0 0.0
2018-Feb-16 14:57N 68°57' E 033°02'0 0.0
2018-Feb-16 14:30N 68°57' E 033°02'0 0.0
2018-Feb-16 14:00N 68°57' E 033°02'0 0.0
2018-Feb-16 13:30N 68°57' E 033°02'0 0.0
2018-Feb-16 13:00N 68°57' E 033°02'0 0.0
2018-Feb-16 12:30N 68°57' E 033°02'0 0.0
2018-Feb-16 12:00N 68°57' E 033°02'0 0.0
2018-Feb-16 11:30N 68°57' E 033°02'0 0.0
2018-Feb-16 11:00N 68°57' E 033°02'0 0.0
2018-Feb-16 10:30N 68°57' E 033°02'0 0.0
2018-Feb-16 10:00N 68°57' E 033°02'0 0.0
2018-Feb-16 09:30N 68°57' E 033°02'0 0.0
2018-Feb-16 09:00N 68°57' E 033°02'0 0.0
2018-Feb-16 08:30N 68°57' E 033°02'0 0.0
2018-Feb-16 08:00N 68°57' E 033°02'0 0.0
2018-Feb-16 07:27N 68°57' E 033°02'0 0.0
2018-Feb-16 07:00N 68°57' E 033°02'0 0.0
2018-Feb-16 06:30N 68°57' E 033°02'0 0.0
2018-Feb-16 05:57N 68°57' E 033°02'0 0.0
2018-Feb-16 05:30N 68°57' E 033°02'0 0.0
2018-Feb-16 04:54N 68°57' E 033°02'0 0.0
2018-Feb-16 04:30N 68°57' E 033°02'0 0.0
2018-Feb-16 04:00N 68°57' E 033°02'0 0.0
2018-Feb-16 03:30N 68°57' E 033°02'0 0.0
2018-Feb-16 03:00N 68°57' E 033°02'0 0.0
2018-Feb-16 02:24N 68°57' E 033°02'0 0.0
2018-Feb-16 02:00N 68°57' E 033°02'0 0.0
2018-Feb-16 01:30N 68°57' E 033°02'0 0.0
2018-Feb-16 01:00N 68°57' E 033°02'0 0.0
2018-Feb-16 00:30N 68°57' E 033°02'0 0.0
2018-Feb-16 00:00N 68°57' E 033°02'0 0.0
2018-Feb-15 23:30N 68°57' E 033°02'0 0.0
2018-Feb-15 23:00N 68°57' E 033°02'0 0.0
2018-Feb-15 22:30N 68°57' E 033°02'0 0.0
2018-Feb-15 22:00N 68°57' E 033°02'0 0.0
2018-Feb-15 21:30N 68°57' E 033°02'0 0.0
2018-Feb-15 21:00N 68°57' E 033°02'0 0.0
2018-Feb-15 20:30N 68°57' E 033°02'0 0.0
2018-Feb-15 20:00N 68°57' E 033°02'0 0.0
2018-Feb-15 19:30N 68°57' E 033°02'0 0.0
2018-Feb-15 19:00N 68°57' E 033°02'0 0.0
2018-Feb-15 18:30N 68°57' E 033°02'0 0.0
2018-Feb-15 18:00N 68°57' E 033°02'0 0.0
2018-Feb-15 17:30N 68°57' E 033°02'0 0.0
2018-Feb-15 17:00N 68°57' E 033°02'0 0.0
2018-Feb-15 16:27N 68°57' E 033°02'0 0.0
2018-Feb-15 16:00N 68°57' E 033°02'0 0.0
2018-Feb-15 15:30N 68°57' E 033°02'0 0.0
2018-Feb-15 15:00N 68°57' E 033°02'0 0.0
2018-Feb-15 14:30N 68°57' E 033°02'0 0.0
2018-Feb-15 14:00N 68°57' E 033°02'0 0.0
2018-Feb-15 13:30N 68°57' E 033°02'0 0.0
2018-Feb-15 13:00N 68°57' E 033°02'0 0.0
2018-Feb-15 12:30N 68°57' E 033°02'0 0.0
2018-Feb-15 12:00N 68°57' E 033°02'0 0.0
2018-Feb-15 11:30N 68°57' E 033°02'0 0.0
2018-Feb-15 11:00N 68°57' E 033°02'0 0.0
2018-Feb-15 10:30N 68°57' E 033°02'0 0.0
2018-Feb-15 09:57N 68°57' E 033°02'0 0.0
2018-Feb-15 09:30N 68°57' E 033°02'0 0.0
2018-Feb-15 09:00N 68°57' E 033°02'0 0.0
2018-Feb-15 08:30N 68°57' E 033°02'0 0.0
2018-Feb-15 08:00N 68°57' E 033°02'0 0.0
2018-Feb-15 07:30N 68°57' E 033°02'0 0.0
2018-Feb-15 07:00N 68°57' E 033°02'0 0.0
2018-Feb-15 06:24N 68°57' E 033°02'0 0.0
2018-Feb-15 06:00N 68°57' E 033°02'0 0.0
2018-Feb-15 05:30N 68°57' E 033°02'0 0.0
2018-Feb-15 05:00N 68°57' E 033°02'0 0.0
2018-Feb-15 04:30N 68°57' E 033°02'0 0.0
2018-Feb-15 04:00N 68°57' E 033°02'0 0.0
2018-Feb-15 03:27N 68°57' E 033°02'0 0.0
2018-Feb-15 03:00N 68°57' E 033°02'0 0.0
2018-Feb-15 02:30N 68°57' E 033°02'0 0.0
2018-Feb-15 01:54N 68°57' E 033°02'0 0.0
2018-Feb-15 01:30N 68°57' E 033°02'0 0.0
2018-Feb-15 01:00N 68°57' E 033°02'0 0.0
2018-Feb-15 00:30N 68°57' E 033°02'0 0.0
2018-Feb-15 00:00N 68°57' E 033°02'0 0.0
2018-Feb-14 23:30N 68°57' E 033°02'0 0.0
2018-Feb-14 23:01N 68°57' E 033°02'0 0.0
2018-Feb-14 22:31N 68°57' E 033°02'1 2.2
2018-Feb-14 22:01N 68°58' E 033°02'3 5.8
2018-Feb-14 21:31N 69°01' E 033°03'3 6.0
2018-Feb-14 21:01N 69°03' E 033°05'0 0.1
2018-Feb-14 19:09N 69°03' E 033°05'1 5.8
2018-Feb-14 19:01N 69°03' E 033°04'3 6.1
2018-Feb-14 18:30N 68°60' E 033°03'3 5.1
2018-Feb-14 18:00N 68°57' E 033°01'1 1.4
2018-Feb-14 17:30N 68°57' E 033°02'0 0.0
2018-Feb-14 17:00N 68°57' E 033°02'0 0.0
2018-Feb-14 16:31N 68°57' E 033°02'0 0.0
2018-Feb-14 16:00N 68°57' E 033°02'0 0.0
2018-Feb-14 15:31N 68°57' E 033°02'0 0.0
2018-Feb-14 15:00N 68°57' E 033°02'0 0.0
2018-Feb-14 14:31N 68°57' E 033°02'0 0.0
2018-Feb-14 14:00N 68°57' E 033°02'0 0.0
2018-Feb-14 13:31N 68°57' E 033°02'0 0.0
2018-Feb-14 13:01N 68°57' E 033°02'0 0.0
2018-Feb-14 12:31N 68°57' E 033°02'0 0.0
2018-Feb-14 11:59N 68°57' E 033°02'0 0.0
2018-Feb-14 11:30N 68°57' E 033°02'0 0.0
2018-Feb-14 11:01N 68°57' E 033°02'0 0.0
2018-Feb-14 10:30N 68°57' E 033°02'0 0.0
2018-Feb-14 10:01N 68°57' E 033°02'0 0.0
2018-Feb-14 09:30N 68°57' E 033°02'0 0.0
2018-Feb-14 09:01N 68°57' E 033°02'0 0.0
2018-Feb-14 08:30N 68°57' E 033°02'0 0.0
2018-Feb-14 08:00N 68°57' E 033°02'0 0.0
2018-Feb-14 07:30N 68°57' E 033°02'0 0.0
2018-Feb-14 07:01N 68°57' E 033°02'0 0.0
2018-Feb-14 06:30N 68°57' E 033°02'0 0.0
2018-Feb-14 06:01N 68°57' E 033°02'0 0.0
2018-Feb-14 05:31N 68°57' E 033°02'0 0.0
2018-Feb-14 05:01N 68°57' E 033°02'0 0.0
2018-Feb-14 04:30N 68°57' E 033°02'0 0.0
2018-Feb-14 04:01N 68°57' E 033°02'0 0.0
2018-Feb-14 03:30N 68°57' E 033°02'0 0.0
2018-Feb-14 03:00N 68°57' E 033°02'0 0.0
2018-Feb-14 02:31N 68°57' E 033°02'0 0.0
2018-Feb-14 02:00N 68°57' E 033°02'0 0.0
2018-Feb-14 01:30N 68°57' E 033°02'0 0.0
2018-Feb-14 01:01N 68°57' E 033°02'0 0.0
2018-Feb-14 00:31N 68°57' E 033°02'0 0.0
2018-Feb-14 00:00N 68°57' E 033°02'0 0.0
2018-Feb-13 23:31N 68°57' E 033°02'0 0.0
2018-Feb-13 23:01N 68°57' E 033°02'0 0.0
2018-Feb-13 22:31N 68°57' E 033°02'0 0.0
2018-Feb-13 22:00N 68°57' E 033°02'0 0.0
2018-Feb-13 21:31N 68°57' E 033°02'0 0.0
2018-Feb-13 21:01N 68°57' E 033°02'0 0.0
2018-Feb-13 20:31N 68°57' E 033°02'0 0.0
2018-Feb-13 20:01N 68°57' E 033°02'0 0.0
2018-Feb-13 19:30N 68°57' E 033°02'0 0.0
2018-Feb-13 19:01N 68°57' E 033°02'0 0.0
2018-Feb-13 18:31N 68°57' E 033°02'0 0.0
2018-Feb-13 18:00N 68°57' E 033°02'0 0.0
2018-Feb-13 17:31N 68°57' E 033°02'0 0.0
2018-Feb-13 17:01N 68°57' E 033°02'0 0.0
2018-Feb-13 16:31N 68°57' E 033°02'0 0.0
2018-Feb-13 16:01N 68°57' E 033°02'0 0.0
2018-Feb-13 15:31N 68°57' E 033°02'0 0.0
2018-Feb-13 15:00N 68°57' E 033°02'0 0.0
2018-Feb-13 14:30N 68°57' E 033°02'0 0.0
2018-Feb-13 14:01N 68°57' E 033°02'0 0.0
2018-Feb-13 13:30N 68°57' E 033°02'0 0.0
2018-Feb-13 13:00N 68°57' E 033°02'  

Dump ship's entire track history